createdAt,value
2023-01-25T00:02:13.193Z,33.22
2023-01-25T00:04:39.673Z,34.53
2023-01-25T00:07:08.396Z,40.85
2023-01-25T00:09:35.011Z,38.00
2023-01-25T00:12:04.037Z,40.35
2023-01-25T00:14:30.544Z,40.05
2023-01-25T00:16:57.024Z,40.53
2023-01-25T00:19:24.008Z,49.85
2023-01-25T00:21:50.458Z,42.60
2023-01-25T00:24:17.021Z,48.35
2023-01-25T00:26:46.404Z,46.28
2023-01-25T00:29:14.407Z,46.00
2023-01-25T00:31:58.830Z,41.35
2023-01-25T00:34:25.374Z,48.80
2023-01-25T00:36:55.281Z,42.13
2023-01-25T00:39:21.748Z,44.35
2023-01-25T00:41:48.294Z,42.05
2023-01-25T00:44:14.953Z,39.10
2023-01-25T00:46:43.690Z,41.05
2023-01-25T00:49:27.622Z,38.45
2023-01-25T00:54:22.933Z,39.78
2023-01-25T00:56:49.918Z,40.63
2023-01-25T00:59:16.353Z,36.40
2023-01-25T01:01:45.839Z,38.40
2023-01-25T01:04:12.324Z,38.92
2023-01-25T01:06:42.291Z,39.30
2023-01-25T01:09:14.079Z,35.80
2023-01-25T01:11:40.665Z,37.30
2023-01-25T01:14:07.369Z,38.40
2023-01-25T01:16:34.930Z,36.50
2023-01-25T01:19:01.435Z,38.70
2023-01-25T01:21:28.222Z,34.63
2023-01-25T01:23:57.785Z,41.22
2023-01-25T01:26:24.488Z,35.45
2023-01-25T01:28:50.906Z,33.90
2023-01-25T01:31:20.856Z,36.58
2023-01-25T01:33:52.128Z,38.72
2023-01-25T01:36:20.945Z,37.70
2023-01-25T01:38:47.451Z,41.15
2023-01-25T01:41:15.645Z,36.00
2023-01-25T01:43:43.003Z,36.72
2023-01-25T01:46:34.414Z,35.58
2023-01-25T01:49:14.282Z,37.00
2023-01-25T01:51:47.383Z,38.88
2023-01-25T01:54:16.868Z,38.40
2023-01-25T01:57:00.263Z,36.15
2023-01-25T01:59:34.701Z,40.35
2023-01-25T02:02:01.242Z,35.72
2023-01-25T02:04:28.480Z,38.47
2023-01-25T02:07:02.600Z,35.60
2023-01-25T02:09:31.569Z,38.25
2023-01-25T02:11:59.798Z,35.45
2023-01-25T02:14:31.488Z,36.55
2023-01-25T02:16:58.481Z,40.85
2023-01-25T02:19:44.171Z,39.15
2023-01-25T02:22:16.503Z,36.58
2023-01-25T02:24:50.820Z,32.42
2023-01-25T02:27:17.970Z,35.53
2023-01-25T02:29:47.385Z,30.42
2023-01-25T02:32:14.295Z,28.15
2023-01-25T02:34:40.777Z,24.83
2023-01-25T02:37:12.514Z,27.95
2023-01-25T02:39:38.961Z,28.60
2023-01-25T02:42:05.516Z,30.65
2023-01-25T02:44:35.021Z,26.95
2023-01-25T02:47:01.487Z,27.10
2023-01-25T02:49:28.002Z,26.90
2023-01-25T02:51:58.397Z,27.67
2023-01-25T02:54:26.749Z,25.92
2023-01-25T02:56:53.490Z,29.13
2023-01-25T02:59:20.004Z,28.17
2023-01-25T03:01:47.056Z,28.00
2023-01-25T03:04:13.645Z,28.80
2023-01-25T03:06:42.641Z,29.40
2023-01-25T03:09:10.592Z,27.83
2023-01-25T03:11:37.354Z,26.00
2023-01-25T03:14:03.882Z,28.98
2023-01-25T03:16:34.228Z,28.38
2023-01-25T03:19:02.978Z,29.52
2023-01-25T03:21:29.513Z,30.65
2023-01-25T03:23:59.156Z,31.35
2023-01-25T03:26:26.786Z,30.88
2023-01-25T03:28:55.804Z,26.98
2023-01-25T03:31:22.627Z,26.58
2023-01-25T03:33:49.814Z,29.52
2023-01-25T03:36:16.462Z,31.60
2023-01-25T03:38:43.160Z,30.30
2023-01-25T03:41:09.605Z,30.92
2023-01-25T03:43:36.020Z,36.72
2023-01-25T03:46:02.548Z,33.50
2023-01-25T03:48:29.468Z,31.67
2023-01-25T03:50:59.216Z,30.48
2023-01-25T03:53:30.773Z,33.15
2023-01-25T03:56:01.806Z,30.98
2023-01-25T03:58:30.876Z,30.08
2023-01-25T04:00:59.945Z,29.95
2023-01-25T04:03:27.239Z,33.15
2023-01-25T04:05:56.089Z,32.65
2023-01-25T04:08:23.167Z,32.22
2023-01-25T04:10:57.683Z,33.15
2023-01-25T04:13:25.225Z,33.25
2023-01-25T04:15:51.809Z,33.10
2023-01-25T04:18:19.093Z,35.20
2023-01-25T04:20:46.052Z,34.15
2023-01-25T04:23:12.870Z,31.35
2023-01-25T04:25:39.619Z,30.33
2023-01-25T04:28:06.133Z,36.53
2023-01-25T04:30:33.754Z,33.95
2023-01-25T04:33:04.799Z,31.42
2023-01-25T04:35:33.624Z,32.85
2023-01-25T04:38:00.509Z,35.03
2023-01-25T04:40:27.748Z,35.05
2023-01-25T04:42:54.454Z,35.78
2023-01-25T04:45:23.704Z,34.85
2023-01-25T04:47:50.585Z,36.75
2023-01-25T04:50:17.112Z,37.33
2023-01-25T04:52:43.550Z,37.30
2023-01-25T04:55:14.773Z,35.88
2023-01-25T04:57:41.311Z,37.85
2023-01-25T05:00:08.810Z,34.20
2023-01-25T05:02:35.397Z,36.35
2023-01-25T05:05:02.554Z,38.53
2023-01-25T05:07:29.091Z,37.53
2023-01-25T05:09:55.573Z,36.50
2023-01-25T05:12:24.300Z,33.50
2023-01-25T05:14:50.750Z,35.00
2023-01-25T05:17:17.256Z,38.58
2023-01-25T05:19:43.723Z,38.20
2023-01-25T05:22:15.221Z,36.65
2023-01-25T05:24:41.939Z,38.97
2023-01-25T05:27:09.712Z,42.22
2023-01-25T05:29:38.009Z,43.95
2023-01-25T05:32:07.453Z,38.05
2023-01-25T05:34:35.032Z,40.95
2023-01-25T05:37:02.770Z,38.55
2023-01-25T05:39:29.515Z,39.40
2023-01-25T05:41:56.079Z,46.00
2023-01-25T05:44:23.106Z,45.38
2023-01-25T05:46:50.302Z,42.40
2023-01-25T05:49:18.064Z,38.60
2023-01-25T05:51:45.510Z,43.67
2023-01-25T05:54:14.897Z,43.50
2023-01-25T05:56:41.516Z,46.78
2023-01-25T05:59:07.960Z,48.20
2023-01-25T06:01:34.377Z,39.35
2023-01-25T06:04:01.412Z,42.72
2023-01-25T06:06:28.264Z,43.67
2023-01-25T06:08:54.695Z,42.47
2023-01-25T06:11:23.966Z,47.45
2023-01-25T06:13:51.335Z,43.35
2023-01-25T06:16:18.873Z,42.83
2023-01-25T06:18:45.514Z,43.75
2023-01-25T06:21:12.264Z,48.13
2023-01-25T06:23:38.743Z,42.15
2023-01-25T06:26:08.003Z,46.55
2023-01-25T06:28:38.811Z,42.58
2023-01-25T06:31:18.602Z,43.03
2023-01-25T06:33:49.553Z,44.30
2023-01-25T06:36:18.619Z,42.08
2023-01-25T06:38:50.737Z,41.63
2023-01-25T06:41:18.374Z,43.13
2023-01-25T06:43:45.538Z,41.90
2023-01-25T06:46:12.663Z,35.90
2023-01-25T06:48:40.173Z,37.75
2023-01-25T06:51:08.964Z,37.97
2023-01-25T06:53:38.473Z,40.03
2023-01-25T06:56:10.684Z,32.90
2023-01-25T06:58:37.807Z,41.40
2023-01-25T07:01:07.610Z,54.63
2023-01-25T07:03:36.949Z,40.90
2023-01-25T07:06:06.288Z,35.00
2023-01-25T07:08:33.838Z,35.50
2023-01-25T07:11:03.312Z,35.22
2023-01-25T07:13:31.061Z,38.28
2023-01-25T07:16:00.149Z,41.65
2023-01-25T07:18:28.005Z,35.22
2023-01-25T07:20:54.471Z,38.33
2023-01-25T07:23:21.006Z,36.90
2023-01-25T07:25:49.333Z,35.95
2023-01-25T07:28:16.944Z,37.45
2023-01-25T07:30:46.267Z,36.63
2023-01-25T07:33:12.787Z,35.55
2023-01-25T07:35:39.336Z,36.30
2023-01-25T07:38:05.984Z,37.63
2023-01-25T07:40:32.476Z,53.75
2023-01-25T07:42:59.021Z,43.35
2023-01-25T07:45:30.195Z,60.22
2023-01-25T07:47:58.870Z,52.80
2023-01-25T07:50:27.001Z,39.35
2023-01-25T07:52:54.246Z,38.92
2023-01-25T07:55:21.849Z,42.65
2023-01-25T07:57:48.459Z,39.50
2023-01-25T08:00:15.183Z,40.10
2023-01-25T08:02:41.740Z,36.92
2023-01-25T08:05:08.965Z,39.33
2023-01-25T08:07:35.647Z,40.70
2023-01-25T08:10:02.149Z,38.75
2023-01-25T08:12:28.800Z,36.75
2023-01-25T08:14:55.362Z,35.38
2023-01-25T08:17:22.084Z,37.97
2023-01-25T08:19:48.608Z,36.78
2023-01-25T08:22:15.094Z,34.83
2023-01-25T08:24:41.569Z,37.38
2023-01-25T08:27:08.003Z,34.88
2023-01-25T08:29:34.700Z,39.88
2023-01-25T08:32:04.352Z,37.13
2023-01-25T08:34:32.355Z,34.20
2023-01-25T08:36:58.926Z,34.67
2023-01-25T08:39:25.827Z,37.63
2023-01-25T08:41:52.467Z,32.13
2023-01-25T08:44:24.021Z,35.88
2023-01-25T08:46:50.572Z,37.92
2023-01-25T08:49:17.085Z,35.38
2023-01-25T08:51:43.610Z,35.05
2023-01-25T08:54:12.499Z,35.30
2023-01-25T08:56:42.508Z,31.60
2023-01-25T08:59:13.254Z,30.83
2023-01-25T09:01:39.783Z,33.63
2023-01-25T09:04:06.220Z,33.05
2023-01-25T09:06:33.146Z,30.25
2023-01-25T09:09:02.250Z,31.75
2023-01-25T09:11:28.904Z,33.08
2023-01-25T09:13:55.416Z,34.13
2023-01-25T09:16:30.988Z,39.22
2023-01-25T09:19:00.390Z,35.08
2023-01-25T09:21:30.239Z,36.25
2023-01-25T09:24:05.865Z,37.22
2023-01-25T09:26:36.370Z,37.83
2023-01-25T09:29:07.681Z,36.38
2023-01-25T09:31:34.453Z,39.45
2023-01-25T09:34:01.173Z,40.05
2023-01-25T09:36:27.694Z,39.30
2023-01-25T09:38:55.382Z,38.70
2023-01-25T09:41:43.454Z,41.38
2023-01-25T09:44:47.905Z,39.88
2023-01-25T09:50:05.300Z,45.45
2023-01-25T09:52:50.806Z,40.70
2023-01-25T09:55:24.335Z,43.22
2023-01-25T09:57:54.025Z,44.53
2023-01-25T10:00:31.874Z,45.67
2023-01-25T10:03:23.333Z,41.10
2023-01-25T10:05:53.522Z,43.45
2023-01-25T10:08:25.930Z,44.13
2023-01-25T10:11:00.204Z,40.13
2023-01-25T10:13:31.750Z,45.10
2023-01-25T10:16:25.631Z,42.15
2023-01-25T10:19:26.907Z,45.05
2023-01-25T10:22:29.903Z,42.22
2023-01-25T10:25:44.317Z,53.25
2023-01-25T10:28:39.642Z,46.53
2023-01-25T10:31:14.773Z,45.50
2023-01-25T10:33:46.284Z,39.70
2023-01-25T10:36:27.224Z,43.72
2023-01-25T10:38:59.196Z,46.55
2023-01-25T10:41:41.343Z,45.47
2023-01-25T10:44:24.592Z,41.17
2023-01-25T10:47:05.150Z,42.58
2023-01-25T10:49:46.258Z,46.22
2023-01-25T10:52:22.222Z,42.55
2023-01-25T10:55:04.571Z,42.00
2023-01-25T10:57:31.236Z,42.83
2023-01-25T11:00:00.660Z,44.47
2023-01-25T11:02:41.646Z,50.47
2023-01-25T11:05:30.774Z,45.17
2023-01-25T11:07:58.706Z,46.08
2023-01-25T11:10:37.322Z,47.63
2023-01-25T11:13:16.109Z,46.22
2023-01-25T11:15:48.583Z,48.92
2023-01-25T11:18:15.063Z,43.33
2023-01-25T11:20:41.529Z,44.42
2023-01-25T11:23:24.010Z,45.90
2023-01-25T11:25:51.392Z,45.60
2023-01-25T11:28:20.102Z,49.90
2023-01-25T11:30:47.582Z,50.28
2023-01-25T11:33:16.670Z,47.10
2023-01-25T11:36:02.960Z,46.20
2023-01-25T11:38:29.707Z,51.60
2023-01-25T11:41:08.845Z,45.95
2023-01-25T11:43:56.955Z,47.75
2023-01-25T11:46:51.259Z,44.72
2023-01-25T11:49:44.325Z,47.08
2023-01-25T11:52:31.818Z,51.10
2023-01-25T11:55:24.409Z,45.85
2023-01-25T11:58:18.919Z,47.47
2023-01-25T12:01:17.603Z,44.33
2023-01-25T12:04:18.310Z,45.95
2023-01-25T12:07:03.919Z,46.85
2023-01-25T12:09:53.685Z,44.47
2023-01-25T12:12:42.872Z,45.65
2023-01-25T12:15:15.559Z,43.70
2023-01-25T12:18:19.695Z,46.73
2023-01-25T12:21:08.274Z,49.70
2023-01-25T12:23:47.398Z,46.38
2023-01-25T12:26:29.790Z,45.55
2023-01-25T12:29:26.276Z,49.17
2023-01-25T12:32:02.920Z,43.40
2023-01-25T12:34:44.113Z,41.22
2023-01-25T12:37:28.405Z,43.20
2023-01-25T12:40:00.518Z,44.28
2023-01-25T12:42:37.638Z,42.65
2023-01-25T12:45:17.925Z,42.42
2023-01-25T12:47:49.271Z,42.38
2023-01-25T12:50:35.011Z,38.17
2023-01-25T12:53:13.590Z,43.40
2023-01-25T12:55:40.733Z,41.15
2023-01-25T12:58:14.111Z,40.10
2023-01-25T13:00:53.673Z,41.53
2023-01-25T13:03:55.764Z,42.22
2023-01-25T13:06:34.453Z,39.40
2023-01-25T13:09:25.251Z,39.65
2023-01-25T13:11:52.022Z,38.75
2023-01-25T13:14:18.730Z,40.85
2023-01-25T13:17:08.472Z,41.60
2023-01-25T13:19:36.436Z,41.63
2023-01-25T13:22:03.773Z,46.38
2023-01-25T13:24:32.461Z,42.97
2023-01-25T13:27:03.899Z,38.33
2023-01-25T13:29:39.647Z,37.83
2023-01-25T13:32:13.478Z,39.90
2023-01-25T13:34:44.115Z,40.20
2023-01-25T13:37:23.002Z,39.25
2023-01-25T13:39:49.455Z,35.83
2023-01-25T13:42:24.254Z,37.28
2023-01-25T13:44:53.971Z,36.03
2023-01-25T13:47:24.082Z,37.05
2023-01-25T13:50:13.003Z,38.85
2023-01-25T13:52:39.768Z,39.22
2023-01-25T13:55:18.194Z,42.00
2023-01-25T13:57:44.718Z,43.53
2023-01-25T14:00:16.785Z,46.63
2023-01-25T14:02:47.204Z,43.00
2023-01-25T14:05:21.354Z,47.22
2023-01-25T14:07:50.963Z,47.83
2023-01-25T14:10:24.243Z,43.45
2023-01-25T14:12:53.891Z,41.63
2023-01-25T14:15:34.417Z,45.97
2023-01-25T14:18:10.523Z,48.17
2023-01-25T14:20:37.176Z,45.15
2023-01-25T14:23:05.715Z,43.50
2023-01-25T14:25:33.517Z,44.65
2023-01-25T14:28:02.421Z,48.38
2023-01-25T14:30:34.901Z,49.55
2023-01-25T14:33:03.977Z,44.47
2023-01-25T14:35:42.307Z,51.47
2023-01-25T14:38:35.431Z,56.35
2023-01-25T14:41:14.432Z,56.53
2023-01-25T14:43:53.588Z,52.40
2023-01-25T14:46:21.468Z,53.45
2023-01-25T14:48:48.075Z,54.35
2023-01-25T14:51:26.062Z,54.42
2023-01-25T14:54:01.444Z,54.85
2023-01-25T14:56:30.568Z,50.20
2023-01-25T14:59:00.572Z,52.65
2023-01-25T15:01:39.813Z,50.55
2023-01-25T15:04:12.483Z,53.95
2023-01-25T15:06:50.816Z,52.55
2023-01-25T15:09:30.950Z,65.85
2023-01-25T15:12:27.953Z,53.13
2023-01-25T15:14:57.481Z,54.38
2023-01-25T15:17:56.681Z,54.03
2023-01-25T15:20:28.119Z,62.50
2023-01-25T15:22:57.650Z,59.03
2023-01-25T15:25:24.624Z,65.88
2023-01-25T15:27:51.633Z,77.93
2023-01-25T15:30:18.885Z,61.03
2023-01-25T15:32:46.021Z,58.17
2023-01-25T15:35:21.682Z,61.20
2023-01-25T15:37:49.538Z,56.28
2023-01-25T15:40:17.110Z,53.83
2023-01-25T15:42:45.947Z,52.85
2023-01-25T15:45:12.461Z,49.50
2023-01-25T15:47:39.571Z,51.85
2023-01-25T15:50:07.071Z,57.47
2023-01-25T15:52:33.599Z,53.17
2023-01-25T15:55:02.194Z,57.50
2023-01-25T15:57:32.963Z,50.50
2023-01-25T16:00:06.617Z,45.88
2023-01-25T16:02:33.183Z,48.00
2023-01-25T16:05:02.142Z,49.72
2023-01-25T16:07:31.980Z,47.40
2023-01-25T16:09:58.482Z,45.83
2023-01-25T16:12:25.621Z,48.60
2023-01-25T16:14:52.080Z,56.85
2023-01-25T16:17:20.374Z,46.92
2023-01-25T16:19:47.865Z,45.78
2023-01-25T16:22:15.537Z,69.90
2023-01-25T16:24:43.512Z,68.47
2023-01-25T16:27:25.580Z,81.82
2023-01-25T16:29:53.033Z,109.00
2023-01-25T16:32:19.650Z,93.20
2023-01-25T16:34:46.249Z,56.05
2023-01-25T16:37:17.134Z,69.15
2023-01-25T16:39:43.622Z,85.78
2023-01-25T16:42:10.896Z,57.60
2023-01-25T16:44:38.046Z,55.35
2023-01-25T16:47:05.310Z,55.25
2023-01-25T16:49:33.420Z,53.25
2023-01-25T16:52:02.613Z,49.53
2023-01-25T16:54:29.104Z,48.45
2023-01-25T16:56:55.611Z,57.92
2023-01-25T16:59:23.147Z,54.13
2023-01-25T17:01:49.925Z,48.90
2023-01-25T17:04:16.983Z,50.65
2023-01-25T17:06:47.082Z,54.40
2023-01-25T17:09:24.607Z,52.10
2023-01-25T17:11:52.414Z,51.78
2023-01-25T17:14:19.530Z,53.30
2023-01-25T17:16:48.235Z,56.88
2023-01-25T17:19:16.227Z,55.65
2023-01-25T17:21:43.197Z,57.33
2023-01-25T17:24:13.387Z,59.78
2023-01-25T17:26:40.761Z,54.65
2023-01-25T17:29:10.096Z,48.38
2023-01-25T17:31:37.378Z,43.38
2023-01-25T17:34:07.123Z,46.35
2023-01-25T17:36:34.245Z,46.42
2023-01-25T17:39:08.206Z,43.70
2023-01-25T17:41:34.874Z,61.35
2023-01-25T17:44:01.482Z,42.65
2023-01-25T17:46:32.904Z,42.42
2023-01-25T17:49:01.087Z,43.13
2023-01-25T17:51:28.228Z,45.10
2023-01-25T17:53:54.990Z,40.20
2023-01-25T17:56:21.525Z,40.05
2023-01-25T17:58:48.077Z,42.67
2023-01-25T18:01:23.908Z,38.22
2023-01-25T18:03:52.307Z,47.75
2023-01-25T18:06:21.729Z,47.53
2023-01-25T18:08:50.403Z,46.90
2023-01-25T18:11:23.161Z,43.25
2023-01-25T18:13:52.001Z,39.50
2023-01-25T18:16:23.507Z,42.28
2023-01-25T18:18:52.463Z,48.08
2023-01-25T18:21:25.539Z,53.75
2023-01-25T18:23:57.600Z,43.90
2023-01-25T18:26:27.070Z,45.90
2023-01-25T18:28:59.578Z,42.85
2023-01-25T18:31:26.534Z,37.30
2023-01-25T18:33:53.165Z,43.40
2023-01-25T18:36:20.431Z,38.90
2023-01-25T18:38:46.906Z,39.50
2023-01-25T18:41:13.443Z,41.28
2023-01-25T18:43:39.974Z,40.15
2023-01-25T18:46:06.659Z,41.60
2023-01-25T18:48:33.501Z,38.20
2023-01-25T18:51:11.235Z,44.80
2023-01-25T18:53:41.471Z,35.42
2023-01-25T18:56:16.682Z,39.75
2023-01-25T18:58:43.974Z,44.55
2023-01-25T19:01:19.856Z,55.38
2023-01-25T19:03:47.806Z,42.75
2023-01-25T19:06:15.023Z,34.95
2023-01-25T19:08:44.136Z,37.85
2023-01-25T19:11:13.935Z,38.70
2023-01-25T19:13:41.648Z,32.35
2023-01-25T19:16:13.921Z,32.97
2023-01-25T19:18:52.061Z,46.75
2023-01-25T19:21:21.556Z,66.35
2023-01-25T19:23:48.485Z,49.45
2023-01-25T19:26:17.718Z,38.40
2023-01-25T19:28:45.290Z,36.67
2023-01-25T19:31:13.792Z,34.65
2023-01-25T19:33:40.869Z,35.60
2023-01-25T19:36:12.939Z,32.10
2023-01-25T19:38:41.925Z,33.30
2023-01-25T19:41:13.727Z,34.83
2023-01-25T19:43:43.778Z,36.55
2023-01-25T19:46:16.219Z,36.42
2023-01-25T19:48:43.994Z,35.10
2023-01-25T19:51:14.764Z,34.65
2023-01-25T19:53:46.397Z,36.15
2023-01-25T19:56:17.711Z,33.22
2023-01-25T19:58:45.918Z,34.97
2023-01-25T20:01:19.205Z,33.33
2023-01-25T20:03:46.042Z,34.78
2023-01-25T20:06:14.178Z,32.55
2023-01-25T20:08:42.929Z,32.95
2023-01-25T20:11:21.595Z,33.63
2023-01-25T20:13:50.436Z,35.33
2023-01-25T20:16:17.724Z,30.95
2023-01-25T20:18:48.452Z,31.23
2023-01-25T20:21:17.746Z,30.98
2023-01-25T20:23:46.247Z,30.27
2023-01-25T20:26:18.570Z,32.33
2023-01-25T20:28:47.738Z,33.35
2023-01-25T20:31:24.781Z,36.88
2023-01-25T20:33:55.486Z,41.40
2023-01-25T20:36:22.639Z,37.00
2023-01-25T20:38:49.128Z,34.97
2023-01-25T20:41:17.362Z,37.58
2023-01-25T20:44:02.049Z,36.50
2023-01-25T20:46:33.955Z,32.97
2023-01-25T20:49:02.167Z,44.25
2023-01-25T20:51:29.513Z,36.47
2023-01-25T20:53:56.856Z,33.00
2023-01-25T20:56:23.947Z,35.33
2023-01-25T20:58:51.371Z,38.75
2023-01-25T21:01:22.418Z,35.55
2023-01-25T21:03:49.827Z,32.15
2023-01-25T21:06:17.373Z,36.65
2023-01-25T21:08:46.320Z,33.05
2023-01-25T21:11:15.804Z,29.98
2023-01-25T21:13:42.389Z,32.13
2023-01-25T21:16:21.569Z,36.25
2023-01-25T21:18:57.464Z,38.05
2023-01-25T21:21:29.219Z,34.05
2023-01-25T21:24:02.670Z,38.05
2023-01-25T21:26:32.115Z,34.20
2023-01-25T21:29:00.217Z,34.42
2023-01-25T21:31:29.069Z,33.40
2023-01-25T21:33:57.934Z,36.97
2023-01-25T21:36:27.232Z,35.13
2023-01-25T21:38:55.118Z,33.55
2023-01-25T21:41:25.731Z,38.53
2023-01-25T21:44:12.913Z,37.85
2023-01-25T21:46:40.089Z,38.50
2023-01-25T21:49:27.323Z,35.83
2023-01-25T21:51:59.196Z,38.70
2023-01-25T21:54:27.219Z,40.42
2023-01-25T21:56:56.543Z,39.50
2023-01-25T21:59:23.882Z,39.47
2023-01-25T22:01:51.575Z,44.97
2023-01-25T22:04:19.798Z,37.78
2023-01-25T22:06:49.085Z,36.15
2023-01-25T22:09:15.720Z,41.78
2023-01-25T22:11:42.435Z,39.28
2023-01-25T22:14:09.023Z,40.17
2023-01-25T22:16:35.491Z,42.78
2023-01-25T22:19:01.976Z,40.08
2023-01-25T22:21:32.069Z,39.95
2023-01-25T22:24:04.322Z,40.95
2023-01-25T22:26:42.888Z,43.20
2023-01-25T22:29:09.439Z,41.60
2023-01-25T22:31:36.066Z,45.50
2023-01-25T22:34:02.757Z,35.42
2023-01-25T22:36:33.041Z,41.90
2023-01-25T22:39:02.223Z,53.22
2023-01-25T22:41:31.282Z,51.00
2023-01-25T22:44:01.149Z,95.22
2023-01-25T22:46:29.225Z,42.75
2023-01-25T22:48:57.337Z,39.60
2023-01-25T22:51:29.371Z,43.28
2023-01-25T22:53:57.655Z,88.72
2023-01-25T22:56:27.404Z,126.03
2023-01-25T22:58:54.533Z,134.25
2023-01-25T23:01:23.872Z,86.22
2023-01-25T23:03:51.322Z,41.75
2023-01-25T23:06:28.742Z,34.80
2023-01-25T23:09:03.230Z,59.95
2023-01-25T23:11:35.287Z,75.70
2023-01-25T23:14:23.143Z,81.93
2023-01-25T23:16:49.746Z,50.75
2023-01-25T23:19:16.360Z,57.80
2023-01-25T23:21:42.872Z,54.35
2023-01-25T23:24:10.437Z,35.58
2023-01-25T23:26:38.069Z,40.60
2023-01-25T23:29:10.898Z,42.65
2023-01-25T23:31:37.967Z,42.00
2023-01-25T23:34:11.169Z,39.05
2023-01-25T23:36:38.828Z,38.80
2023-01-25T23:39:07.588Z,44.15
2023-01-25T23:41:34.210Z,37.35
2023-01-25T23:44:02.000Z,43.42
2023-01-25T23:46:30.190Z,36.10
2023-01-25T23:48:56.803Z,42.22
2023-01-25T23:51:23.319Z,41.47
2023-01-25T23:53:49.796Z,34.58
2023-01-25T23:56:18.515Z,37.55
2023-01-25T23:58:47.997Z,34.65
